Airfield :
LOGIN :

Register | Disclaimer

   EN    FR    IT 

 










Legend :    VFR   Marginal VFR   IFR   Intensive IFR   Very Intensive IFR
Visi :
Ceiling :
>= 8 km
>= 3000ft
5 to 8 km
1000 to 3000 ft
1500m to 5 km
500 to 1000 ft
800 to 1500m
200 to 500 ft
< 800m
< 200 ft
Symbols :   Thunderstorms  Fog  Heavy snow  Heavy precipitations  Wind > 20 kt
SIGMETs :     Misc.  Thunderstorms  Icing  Turbulence  Mountain Waves  Volcanic Ashes







- Airport Elevation : 1768 ft


LEHC - Huesca Pirineos

CURRENT METAR :
  • 161700Z 24004KT 160V320 9999 FEW050TCU 31/14 Q1014

EXPIRED METARs :
  • 161630Z 20005KT 140V250 9999 FEW050TCU 30/15 Q1014
  • 161600Z 21003KT 9999 FEW050 31/14 Q1014
  • 161530Z 22003KT 9999 FEW050 32/14 Q1015
  • 161500Z 21005KT 140V280 9999 FEW050 31/14 Q1015
  • 161430Z 20005KT 9999 FEW050 30/15 Q1015

TAF TAF LEHC
Valid from the 16 at 09:00 until the 17 at 09:00 UTC


160800Z 1609/1709 10010KT 9999 FEW040 TX32/1615Z TN17/1705Z
PROB40
TEMPO 1616/1622 3000 TSRA SCT030CB BKN040
BECMG 1623/1701 VRB04KT
No reported NOTAMs for that airfield.
2 SIGMETs reported for the Madrid FIR (LECM) :
 
Embedded thunderstorms
LECM SIGMET 11 VALID 161700/161900 LEVA
LECM MADRID FIR/UIR EMBD TS OBS AT 1642Z E OF LINE N3932 W00505 - N3638 W00530 TOP FL390 STNR NC=
Embedded thunderstorms
LECM SIGMET 10 VALID 161630/161900 LEVA
LECM MADRID FIR/UIR EMBD TS OBS AT 1600Z E OF LINE N3931 W00601 - N4221 W00201 TOP FL380 STNR NC=



MET'MAP, your aeronautical weather chart ! - Copyright ORBIFLY December 2007 - Disclaimer

ORBIFLY MET'MAP TEAM :

Programming & Development : Alexandra Zaïnal
Concept & Development : Baudouin d'Aumeries
Co-Development & Prog : Marc-Olivier Méhu
Technical & hardware support : Manuel Goepfert

Contact : metmap@orbifly.com




SOURCES & CREDITS :

   NOAA